Time;durP1;ratioP1;P1;durP2;ratioP2;P2;SDS_P1;SDS_P2;PMS_P1;PMS_P2;Temp;Humidity;BMP_temperature;BMP_pressure;BME280_temperature;BME280_humidity;BME280_pressure;Samples;Min_cycle;Max_cycle;Signal;HPM_P1;HPM_P2
2022/04/03 00:00:26;;;;;;;4.03;1.75;;;0.90;99.90;;;;;;5090555;28;20089;-66
2022/04/03 00:02:52;;;;;;;2.40;2.20;;;1.00;99.90;;;;;;5073334;28;20040;-66
2022/04/03 00:05:20;;;;;;;3.78;1.50;;;0.90;99.90;;;;;;5074691;28;20052;-65
2022/04/03 00:07:46;;;;;;;5.32;2.03;;;1.00;99.90;;;;;;5096749;28;20044;-66
2022/04/03 00:10:14;;;;;;;3.08;2.08;;;1.30;99.90;;;;;;5092964;28;20035;-66
2022/04/03 00:12:40;;;;;;;4.32;2.60;;;1.10;99.90;;;;;;5094850;28;20060;-66
2022/04/03 00:15:06;;;;;;;2.65;2.08;;;1.20;99.90;;;;;;5093681;28;20096;-66
2022/04/03 00:17:31;;;;;;;4.38;3.00;;;1.00;99.90;;;;;;5112853;28;20047;-66
2022/04/03 00:19:57;;;;;;;4.20;2.28;;;1.00;99.90;;;;;;5111924;28;20447;-66
2022/04/03 00:22:24;;;;;;;3.17;2.10;;;1.00;99.90;;;;;;5094541;28;20082;-66
2022/04/03 00:24:51;;;;;;;4.15;2.08;;;1.00;99.90;;;;;;5094776;28;20123;-66
2022/04/03 00:27:17;;;;;;;5.43;2.00;;;1.00;99.90;;;;;;5111911;28;20052;-66
2022/04/03 00:29:43;;;;;;;4.97;2.20;;;1.00;99.90;;;;;;5112876;28;20543;-66
2022/04/03 00:32:09;;;;;;;3.03;2.00;;;1.00;99.90;;;;;;5094183;28;20501;-66
2022/04/03 00:34:34;;;;;;;2.83;1.85;;;1.00;99.90;;;;;;5093538;28;20048;-66
2022/04/03 00:37:00;;;;;;;4.15;2.13;;;1.00;99.90;;;;;;5112679;28;20144;-66
2022/04/03 00:39:25;;;;;;;2.15;1.70;;;0.90;99.90;;;;;;5094211;28;20040;-66
2022/04/03 00:41:52;;;;;;;3.92;2.38;;;0.80;99.90;;;;;;5111833;28;20487;-66
2022/04/03 00:44:17;;;;;;;3.17;2.03;;;0.90;99.90;;;;;;5094089;28;20048;-66
2022/04/03 00:46:46;;;;;;;2.28;1.80;;;0.40;99.90;;;;;;5094131;28;20432;-66
2022/04/03 00:49:11;;;;;;;1.90;1.70;;;0.90;99.90;;;;;;5111356;28;20047;-66
2022/04/03 00:51:38;;;;;;;2.15;1.80;;;0.60;99.90;;;;;;5112568;28;20051;-66
2022/04/03 00:54:05;;;;;;;3.95;2.47;;;0.60;99.90;;;;;;5112309;28;20046;-66
2022/04/03 00:56:32;;;;;;;2.90;1.70;;;0.70;99.90;;;;;;5111740;28;20044;-66
2022/04/03 00:58:58;;;;;;;3.85;1.80;;;0.60;99.90;;;;;;5094144;28;20142;-66
2022/04/03 01:01:23;;;;;;;2.92;1.75;;;0.50;99.90;;;;;;5112167;28;20561;-66
2022/04/03 01:03:49;;;;;;;2.78;1.67;;;0.50;99.90;;;;;;5093476;28;20054;-66
2022/04/03 01:06:15;;;;;;;2.95;1.50;;;0.60;99.90;;;;;;5093835;28;20043;-66
2022/04/03 01:08:42;;;;;;;1.65;1.55;;;0.50;99.90;;;;;;5112272;28;20062;-66
2022/04/03 01:11:09;;;;;;;4.65;1.55;;;0.60;99.90;;;;;;5111279;28;20060;-66
2022/04/03 01:13:47;;;;;;;5.72;2.00;;;0.50;99.90;;;;;;5112125;28;20103;-65
2022/04/03 01:16:13;;;;;;;2.22;1.20;;;0.50;99.90;;;;;;5111182;28;20555;-65
2022/04/03 01:18:39;;;;;;;4.22;1.60;;;2.30;99.90;;;;;;5093977;28;20055;-66
2022/04/03 01:21:04;;;;;;;2.65;1.48;;;0.50;99.90;;;;;;5092630;28;20051;-66
2022/04/03 01:23:30;;;;;;;2.60;1.65;;;0.60;99.90;;;;;;5093194;28;20047;-66
2022/04/03 01:25:56;;;;;;;7.50;2.30;;;0.50;99.90;;;;;;5093657;28;20039;-66
2022/04/03 01:28:23;;;;;;;1.50;1.30;;;0.80;99.90;;;;;;5111866;28;20047;-66
2022/04/03 01:30:49;;;;;;;2.10;1.40;;;0.50;99.90;;;;;;5111181;28;20043;-66
2022/04/03 01:33:15;;;;;;;2.67;1.60;;;0.50;99.90;;;;;;5093746;28;20397;-65
2022/04/03 01:35:41;;;;;;;2.60;1.30;;;0.60;99.90;;;;;;5093908;28;20037;-66
2022/04/03 01:38:07;;;;;;;1.80;1.20;;;0.60;99.90;;;;;;5092854;28;20045;-66
2022/04/03 01:40:37;;;;;;;1.95;1.08;;;0.80;99.90;;;;;;5111908;28;20040;-66
2022/04/03 01:43:07;;;;;;;2.95;1.83;;;0.70;99.90;;;;;;5093566;28;20047;-66
2022/04/03 01:45:34;;;;;;;4.05;1.40;;;0.70;99.90;;;;;;5092911;28;20075;-66
2022/04/03 01:47:59;;;;;;;2.78;1.40;;;0.70;99.90;;;;;;5093143;28;20053;-66
2022/04/03 01:50:26;;;;;;;1.67;1.33;;;0.70;99.90;;;;;;5093436;28;20126;-65
2022/04/03 01:52:52;;;;;;;1.35;1.05;;;0.70;99.90;;;;;;5093417;28;20055;-65
2022/04/03 01:55:18;;;;;;;1.17;0.77;;;0.70;99.90;;;;;;5115508;28;20039;-65
2022/04/03 01:57:43;;;;;;;1.00;0.80;;;0.80;99.90;;;;;;5097421;28;20134;-66
2022/04/03 02:00:10;;;;;;;0.98;0.80;;;0.80;99.90;;;;;;5096701;28;20097;-66
2022/04/03 02:02:36;;;;;;;1.23;0.93;;;0.90;99.90;;;;;;5115795;28;20050;-66
2022/04/03 02:05:03;;;;;;;0.80;0.80;;;0.90;99.90;;;;;;5115587;28;20040;-65
2022/04/03 02:07:33;;;;;;;2.55;0.88;;;0.90;99.90;;;;;;5114550;28;20075;-66
2022/04/03 02:10:04;;;;;;;2.42;1.20;;;0.90;99.90;;;;;;5097023;28;20567;-66
2022/04/03 02:12:30;;;;;;;2.17;1.65;;;0.90;99.90;;;;;;5114889;28;20092;-66
2022/04/03 02:14:56;;;;;;;1.75;1.05;;;1.00;99.90;;;;;;5115323;28;20048;-66
2022/04/03 02:17:22;;;;;;;1.20;1.10;;;0.90;99.90;;;;;;5097175;28;20075;-66
2022/04/03 02:19:47;;;;;;;1.75;0.88;;;1.00;99.90;;;;;;5096231;28;20094;-66
2022/04/03 02:22:15;;;;;;;3.17;1.30;;;1.00;99.90;;;;;;5114987;28;20114;-66
2022/04/03 02:24:41;;;;;;;2.03;0.80;;;1.00;99.90;;;;;;5115182;28;20386;-65
2022/04/03 02:27:07;;;;;;;2.10;0.93;;;1.00;99.90;;;;;;5114288;28;20047;-66
2022/04/03 02:29:32;;;;;;;0.95;0.90;;;1.10;99.90;;;;;;5115330;28;20043;-66
2022/04/03 02:31:59;;;;;;;0.68;0.68;;;1.10;99.90;;;;;;5096316;28;20047;-66
2022/04/03 02:34:26;;;;;;;1.08;0.82;;;1.10;99.90;;;;;;5114420;28;20043;-65
2022/04/03 02:36:52;;;;;;;3.50;0.80;;;1.10;99.90;;;;;;5115109;28;20511;-66
2022/04/03 02:39:18;;;;;;;1.13;1.00;;;1.10;99.90;;;;;;5113525;28;20071;-65
2022/04/03 02:41:44;;;;;;;1.83;0.93;;;1.20;99.90;;;;;;5082537;28;20130;-65
2022/04/03 02:44:10;;;;;;;0.95;0.80;;;1.20;99.90;;;;;;5086786;28;20129;-66
2022/04/03 02:46:36;;;;;;;2.20;0.75;;;1.30;99.90;;;;;;5106246;28;20058;-66
2022/04/03 02:49:02;;;;;;;2.25;1.00;;;1.50;99.90;;;;;;5093229;28;20440;-66
2022/04/03 02:51:27;;;;;;;1.00;0.90;;;1.30;99.90;;;;;;5104226;28;20039;-66
2022/04/03 02:53:53;;;;;;;1.30;1.00;;;1.30;99.90;;;;;;5101871;28;20044;-66
2022/04/03 02:56:18;;;;;;;1.23;0.90;;;1.30;99.90;;;;;;5094024;28;20136;-65
2022/04/03 02:58:44;;;;;;;1.23;0.95;;;1.30;99.90;;;;;;5094343;28;20105;-66
2022/04/03 03:01:10;;;;;;;1.55;1.02;;;1.30;99.90;;;;;;5075603;28;20052;-66
2022/04/03 03:03:35;;;;;;;5.70;1.10;;;1.30;99.90;;;;;;5074872;28;20440;-65
2022/04/03 03:06:02;;;;;;;1.77;0.73;;;1.30;99.90;;;;;;5074330;28;20064;-66
2022/04/03 03:08:27;;;;;;;3.33;1.05;;;1.30;99.90;;;;;;5076154;28;20401;-65
2022/04/03 03:10:53;;;;;;;4.32;1.00;;;1.30;99.90;;;;;;5075025;28;20044;-66
2022/04/03 03:13:19;;;;;;;3.08;1.15;;;1.30;99.90;;;;;;5075615;28;20123;-66
2022/04/03 03:15:44;;;;;;;0.82;0.82;;;1.40;99.90;;;;;;5102735;28;20047;-66
2022/04/03 03:18:10;;;;;;;2.58;0.82;;;1.30;99.90;;;;;;5077358;28;20044;-65
2022/04/03 03:20:36;;;;;;;1.67;1.00;;;1.30;99.90;;;;;;5114163;28;20047;-65
2022/04/03 03:23:02;;;;;;;2.88;1.02;;;1.30;99.90;;;;;;5112809;28;20040;-66
2022/04/03 03:25:29;;;;;;;1.08;0.70;;;1.30;99.90;;;;;;5075795;28;20427;-66
2022/04/03 03:27:54;;;;;;;1.23;0.82;;;1.20;99.90;;;;;;5093514;28;20059;-66
2022/04/03 03:30:21;;;;;;;0.98;0.70;;;1.30;99.90;;;;;;5093059;28;20044;-66
2022/04/03 03:32:46;;;;;;;1.95;0.80;;;1.10;99.90;;;;;;5093623;28;20257;-66
2022/04/03 03:35:12;;;;;;;2.42;0.80;;;1.10;99.90;;;;;;5093247;28;20512;-66
2022/04/03 03:37:38;;;;;;;0.95;0.82;;;1.10;99.90;;;;;;5092582;28;20044;-66
2022/04/03 03:40:06;;;;;;;1.13;1.00;;;1.30;99.90;;;;;;5093042;28;20509;-66
2022/04/03 03:42:33;;;;;;;1.25;0.80;;;1.00;99.90;;;;;;5075475;28;20097;-66
2022/04/03 03:44:59;;;;;;;3.08;1.58;;;0.90;99.90;;;;;;5092245;28;20040;-66
2022/04/03 03:47:26;;;;;;;1.35;0.90;;;0.90;99.90;;;;;;5093187;28;20048;-66
2022/04/03 03:49:52;;;;;;;1.13;0.90;;;0.90;99.90;;;;;;5074999;28;20523;-66
2022/04/03 03:52:18;;;;;;;4.22;0.98;;;0.90;99.90;;;;;;5102927;28;20079;-66
2022/04/03 03:54:45;;;;;;;5.88;1.02;;;0.90;99.90;;;;;;5113619;28;20040;-66
2022/04/03 03:57:12;;;;;;;1.10;1.00;;;0.90;99.90;;;;;;5084461;28;20060;-66
2022/04/03 03:59:37;;;;;;;2.90;1.33;;;0.90;99.90;;;;;;5092261;28;20623;-66
2022/04/03 04:02:03;;;;;;;1.83;1.40;;;0.90;99.90;;;;;;5105363;28;20055;-66
2022/04/03 04:04:29;;;;;;;1.42;1.15;;;1.00;99.90;;;;;;5113341;28;20040;-66
2022/04/03 04:06:55;;;;;;;2.75;1.35;;;1.10;99.90;;;;;;5112203;28;20449;-66
2022/04/03 04:09:21;;;;;;;3.63;1.60;;;1.00;99.90;;;;;;5095037;28;20058;-66
2022/04/03 04:11:46;;;;;;;1.50;1.20;;;1.00;99.90;;;;;;5101029;28;20039;-66
2022/04/03 04:14:12;;;;;;;2.10;1.10;;;1.00;99.90;;;;;;5095225;28;20452;-66
2022/04/03 04:16:38;;;;;;;3.03;1.92;;;1.10;99.90;;;;;;5103795;28;20067;-66
2022/04/03 04:19:05;;;;;;;2.70;1.17;;;1.00;99.90;;;;;;5105810;28;20036;-66
2022/04/03 04:21:34;;;;;;;1.50;1.40;;;1.00;99.90;;;;;;5092535;28;20044;-66
2022/04/03 04:24:00;;;;;;;1.55;0.90;;;0.90;99.90;;;;;;5092447;28;20051;-66
2022/04/03 04:26:25;;;;;;;4.85;1.33;;;1.20;99.90;;;;;;5083000;28;20044;-67
2022/04/03 04:28:51;;;;;;;2.60;1.55;;;1.10;99.90;;;;;;5096401;28;20040;-66
2022/04/03 04:31:18;;;;;;;3.40;1.40;;;0.80;99.90;;;;;;5112557;28;20076;-66
2022/04/03 04:33:44;;;;;;;2.55;1.38;;;0.80;99.90;;;;;;5098629;28;20036;-66
2022/04/03 04:36:09;;;;;;;4.00;1.60;;;0.70;99.90;;;;;;5092054;28;20498;-66
2022/04/03 04:38:36;;;;;;;4.10;2.60;;;0.70;99.90;;;;;;5074295;28;20623;-66
2022/04/03 04:41:02;;;;;;;2.30;1.50;;;0.60;99.90;;;;;;5107154;28;20047;-66
2022/04/03 04:43:27;;;;;;;4.07;1.50;;;0.50;99.90;;;;;;5112713;28;20042;-66
2022/04/03 04:45:53;;;;;;;1.77;1.20;;;0.50;99.90;;;;;;5111850;28;20203;-66
2022/04/03 04:48:18;;;;;;;1.67;1.10;;;0.40;99.90;;;;;;5081343;28;20104;-66
2022/04/03 04:50:44;;;;;;;4.05;1.90;;;0.30;99.90;;;;;;5112481;28;20387;-66
2022/04/03 04:53:10;;;;;;;5.60;1.75;;;0.30;99.90;;;;;;5098093;28;20062;-66
2022/04/03 04:55:35;;;;;;;4.30;1.40;;;0.50;99.90;;;;;;5073218;28;20058;-66
2022/04/03 04:58:01;;;;;;;1.83;1.52;;;0.20;99.90;;;;;;5073593;28;20131;-66
2022/04/03 05:00:31;;;;;;;1.67;1.17;;;0.20;99.90;;;;;;5091923;28;20089;-66
2022/04/03 05:02:58;;;;;;;4.28;1.40;;;0.10;99.90;;;;;;5072826;28;20052;-66
2022/04/03 05:05:24;;;;;;;2.47;1.70;;;0.10;99.90;;;;;;5092031;28;20441;-66
2022/04/03 05:07:54;;;;;;;3.83;1.92;;;0.30;99.90;;;;;;5091891;28;20056;-66
2022/04/03 05:10:20;;;;;;;1.85;1.27;;;0.10;99.90;;;;;;5091101;28;20085;-66
2022/04/03 05:12:46;;;;;;;1.70;1.50;;;0.10;99.90;;;;;;5073780;28;20076;-66
2022/04/03 05:15:12;;;;;;;2.53;1.48;;;0.20;99.90;;;;;;5091619;28;20080;-66
2022/04/03 05:17:40;;;;;;;5.97;1.77;;;0.00;99.90;;;;;;5072932;28;20055;-66
2022/04/03 05:20:06;;;;;;;3.42;1.60;;;0.10;99.90;;;;;;5091524;28;20059;-66
2022/04/03 05:22:32;;;;;;;1.55;1.15;;;0.10;99.90;;;;;;5078583;28;20044;-66
2022/04/03 05:24:58;;;;;;;2.28;1.70;;;0.10;99.90;;;;;;5098621;28;20044;-66
2022/04/03 05:27:24;;;;;;;5.85;1.50;;;0.10;99.90;;;;;;5091802;28;20108;-66
2022/04/03 05:29:53;;;;;;;3.88;1.48;;;0.30;99.90;;;;;;5089993;28;20047;-65
2022/04/03 05:32:28;;;;;;;3.20;1.50;;;0.10;99.90;;;;;;5079017;28;20056;-66
2022/04/03 05:34:54;;;;;;;3.88;1.80;;;0.20;99.90;;;;;;5115814;28;20035;-66
2022/04/03 05:37:19;;;;;;;1.85;1.40;;;0.10;99.90;;;;;;5105672;28;20039;-66
2022/04/03 05:39:45;;;;;;;2.38;1.77;;;0.10;99.90;;;;;;5116282;28;20057;-66
2022/04/03 05:42:11;;;;;;;2.25;1.98;;;0.40;99.90;;;;;;5115893;28;20047;-66
2022/04/03 05:44:37;;;;;;;2.22;1.20;;;0.30;99.90;;;;;;5115229;28;20048;-66
2022/04/03 05:47:03;;;;;;;2.03;1.60;;;0.10;99.90;;;;;;5097432;28;20051;-66
2022/04/03 05:49:28;;;;;;;3.80;2.17;;;0.10;99.90;;;;;;5097398;28;20052;-66
2022/04/03 05:51:54;;;;;;;2.70;1.70;;;0.20;99.90;;;;;;5096847;28;20054;-66
2022/04/03 05:54:19;;;;;;;4.15;2.17;;;0.20;99.90;;;;;;5097516;28;20086;-66
2022/04/03 05:56:46;;;;;;;3.47;1.98;;;0.30;99.90;;;;;;5115869;28;20044;-66
2022/04/03 05:59:12;;;;;;;3.65;1.23;;;0.40;99.90;;;;;;5089153;28;20043;-66
2022/04/03 06:01:38;;;;;;;4.32;1.83;;;0.50;99.90;;;;;;5101981;28;20105;-66
2022/04/03 06:04:04;;;;;;;2.22;1.30;;;0.60;99.90;;;;;;5083623;28;20097;-66
2022/04/03 06:06:29;;;;;;;5.28;1.35;;;0.60;99.90;;;;;;5114100;28;20042;-66
2022/04/03 06:08:55;;;;;;;2.40;1.33;;;0.80;99.90;;;;;;5115326;28;20051;-66
2022/04/03 06:11:20;;;;;;;5.38;1.63;;;0.80;99.90;;;;;;5112944;28;20097;-66
2022/04/03 06:13:46;;;;;;;1.83;1.42;;;0.90;99.90;;;;;;5114739;28;20050;-66
2022/04/03 06:16:11;;;;;;;3.55;1.35;;;0.90;99.90;;;;;;5115090;28;20075;-66
2022/04/03 06:18:37;;;;;;;1.55;1.45;;;1.00;99.90;;;;;;5114714;28;20043;-66
2022/04/03 06:21:02;;;;;;;3.60;1.52;;;1.30;99.90;;;;;;5115176;28;20051;-66
2022/04/03 06:23:28;;;;;;;5.05;2.13;;;1.20;99.90;;;;;;5092992;28;20048;-66
2022/04/03 06:25:56;;;;;;;3.92;1.38;;;1.30;99.90;;;;;;5085243;28;20039;-66
2022/04/03 06:28:22;;;;;;;2.97;1.10;;;1.30;99.90;;;;;;5081223;28;20110;-66
2022/04/03 06:30:47;;;;;;;3.42;1.20;;;1.40;99.90;;;;;;5087817;28;20451;-66
2022/04/03 06:33:14;;;;;;;1.58;1.45;;;1.50;99.90;;;;;;5095966;28;20550;-66
2022/04/03 06:35:40;;;;;;;5.20;0.85;;;1.60;99.90;;;;;;5112635;28;20075;-66
2022/04/03 06:38:06;;;;;;;3.75;0.82;;;1.70;99.90;;;;;;5078188;28;20047;-66
2022/04/03 06:40:38;;;;;;;1.70;0.73;;;1.80;99.90;;;;;;5114069;28;20039;-66
2022/04/03 06:43:03;;;;;;;3.03;0.93;;;2.30;99.90;;;;;;5096134;28;20048;-66
2022/04/03 06:45:30;;;;;;;1.45;0.82;;;1.90;99.90;;;;;;5103330;28;20036;-66
2022/04/03 06:48:00;;;;;;;3.65;1.33;;;2.00;99.90;;;;;;5075168;28;20490;-67
2022/04/03 06:50:28;;;;;;;3.22;0.95;;;2.20;99.90;;;;;;5083831;28;20129;-66
2022/04/03 06:52:56;;;;;;;3.58;1.02;;;2.30;99.90;;;;;;5083783;28;20044;-66
2022/04/03 06:55:22;;;;;;;3.35;1.15;;;2.40;99.90;;;;;;5085922;28;20486;-66
2022/04/03 06:57:48;;;;;;;2.60;1.00;;;2.50;99.90;;;;;;5096521;28;20051;-66
2022/04/03 07:00:14;;;;;;;1.95;1.35;;;2.60;99.90;;;;;;5095338;27;20051;-66
2022/04/03 07:02:39;;;;;;;1.20;1.00;;;2.70;99.90;;;;;;5103752;27;20516;-66
2022/04/03 07:05:05;;;;;;;1.42;1.10;;;3.00;99.90;;;;;;5080065;28;20048;-66
2022/04/03 07:07:31;;;;;;;2.88;0.77;;;3.00;99.90;;;;;;5094041;28;20078;-66
2022/04/03 07:09:56;;;;;;;5.30;1.55;;;3.10;99.90;;;;;;5112272;27;20067;-66
2022/04/03 07:12:22;;;;;;;5.13;0.85;;;3.20;99.90;;;;;;5088715;28;20085;-66
2022/04/03 07:14:48;;;;;;;2.45;0.90;;;3.30;99.90;;;;;;5077733;28;20044;-66
2022/04/03 07:17:19;;;;;;;3.10;0.90;;;3.40;99.90;;;;;;5084876;28;20394;-66
2022/04/03 07:19:45;;;;;;;1.65;0.88;;;3.30;99.90;;;;;;5095323;28;20130;-66
2022/04/03 07:22:10;;;;;;;2.42;1.02;;;3.40;99.90;;;;;;5085297;28;20832;-66
2022/04/03 07:24:36;;;;;;;1.48;0.80;;;3.40;99.90;;;;;;5093490;28;20051;-66
2022/04/03 07:27:01;;;;;;;2.40;0.65;;;3.40;99.90;;;;;;5083645;28;20043;-66
2022/04/03 07:29:27;;;;;;;1.52;0.68;;;3.50;99.90;;;;;;5094053;28;20044;-66
2022/04/03 07:31:53;;;;;;;0.70;0.32;;;3.50;99.90;;;;;;5113377;28;20070;-66
2022/04/03 07:34:19;;;;;;;1.90;0.65;;;3.50;99.90;;;;;;5113099;28;20050;-66
2022/04/03 07:36:44;;;;;;;2.38;0.90;;;3.60;99.90;;;;;;5112783;28;20047;-66
2022/04/03 07:39:10;;;;;;;1.83;0.43;;;3.80;99.90;;;;;;5112894;28;20036;-66
2022/04/03 07:41:37;;;;;;;1.65;0.70;;;3.90;99.90;;;;;;5094784;28;20497;-66
2022/04/03 07:44:08;;;;;;;0.88;0.73;;;4.10;99.90;;;;;;5107140;28;20546;-66
2022/04/03 07:46:34;;;;;;;1.33;0.85;;;4.20;99.90;;;;;;5087113;28;20039;-66
2022/04/03 07:49:00;;;;;;;1.00;0.50;;;4.40;99.90;;;;;;5083496;28;20124;-67
2022/04/03 07:51:27;;;;;;;1.25;0.90;;;4.60;99.90;;;;;;5092440;28;20478;-67
2022/04/03 07:53:53;;;;;;;5.45;1.70;;;4.70;99.90;;;;;;5074892;28;20048;-67
2022/04/03 07:56:19;;;;;;;2.60;0.70;;;4.90;99.90;;;;;;5074392;28;20063;-67
2022/04/03 07:58:44;;;;;;;4.38;0.82;;;5.00;99.90;;;;;;5074047;28;20146;-66
2022/04/03 08:01:10;;;;;;;3.20;0.75;;;5.10;99.90;;;;;;5092320;28;20051;-67
2022/04/03 08:03:35;;;;;;;3.58;0.85;;;5.20;99.90;;;;;;5074339;28;20051;-67
2022/04/03 08:06:01;;;;;;;1.65;0.90;;;5.30;99.90;;;;;;5091728;28;20044;-67
2022/04/03 08:08:26;;;;;;;3.92;1.08;;;5.40;99.90;;;;;;5074050;28;20055;-67
2022/04/03 08:10:52;;;;;;;10.05;1.65;;;5.40;99.90;;;;;;5074481;28;20402;-67
2022/04/03 08:13:18;;;;;;;0.82;0.65;;;5.60;99.90;;;;;;5091819;28;20410;-67
2022/04/03 08:15:43;;;;;;;1.27;0.90;;;5.70;99.90;;;;;;5110439;28;20081;-67
2022/04/03 08:18:09;;;;;;;3.63;0.98;;;5.80;99.90;;;;;;5101296;28;20571;-66
2022/04/03 08:20:35;;;;;;;2.67;1.20;;;5.80;99.90;;;;;;5099251;28;20502;-67
2022/04/03 08:23:03;;;;;;;1.35;0.70;;;5.70;99.90;;;;;;5104282;28;20047;-67
2022/04/03 08:25:30;;;;;;;3.15;0.80;;;5.70;99.90;;;;;;5112240;28;20055;-67
2022/04/03 08:27:56;;;;;;;0.75;0.52;;;5.80;99.90;;;;;;5094315;28;20496;-68
2022/04/03 08:30:25;;;;;;;2.97;0.80;;;6.00;99.90;;;;;;5113055;28;20069;-69
2022/04/03 08:32:52;;;;;;;5.75;0.40;;;6.10;99.90;;;;;;5093694;28;20047;-68
2022/04/03 08:35:18;;;;;;;0.65;0.30;;;6.20;99.90;;;;;;5086595;28;20191;-68
2022/04/03 08:37:45;;;;;;;2.38;0.55;;;6.20;99.90;;;;;;5078472;28;20478;-68
2022/04/03 08:40:11;;;;;;;4.85;0.68;;;6.20;99.90;;;;;;5081958;28;20044;-68
2022/04/03 08:42:38;;;;;;;1.75;0.60;;;6.20;99.90;;;;;;5102486;28;20541;-68
2022/04/03 08:45:04;;;;;;;3.63;0.60;;;6.30;99.90;;;;;;5072814;28;20085;-67
2022/04/03 08:47:31;;;;;;;5.00;0.43;;;6.40;99.90;;;;;;5090914;28;20093;-71
2022/04/03 08:50:00;;;;;;;0.52;0.30;;;6.40;99.90;;;;;;5100865;28;20048;-69
2022/04/03 08:52:27;;;;;;;2.25;0.47;;;6.50;99.90;;;;;;5084819;28;20474;-70
2022/04/03 08:54:53;;;;;;;1.35;0.50;;;6.40;99.90;;;;;;5091579;28;20064;-69
2022/04/03 08:57:20;;;;;;;1.08;0.70;;;6.20;99.90;;;;;;5101767;27;20082;-68
2022/04/03 08:59:46;;;;;;;2.50;0.90;;;6.10;99.90;;;;;;5093440;28;20048;-68
2022/04/03 09:02:13;;;;;;;2.88;0.93;;;6.00;99.90;;;;;;5072522;28;20039;-69
2022/04/03 09:04:38;;;;;;;1.50;0.75;;;5.90;99.90;;;;;;5091587;28;20040;-69
2022/04/03 09:07:04;;;;;;;1.85;0.43;;;6.00;99.90;;;;;;5100558;28;20067;-68
2022/04/03 09:09:30;;;;;;;0.47;0.30;;;6.10;99.90;;;;;;5085011;28;20048;-66
2022/04/03 09:12:09;;;;;;;11.55;0.70;;;6.10;99.90;;;;;;5110211;28;20082;-66
2022/04/03 09:14:35;;;;;;;1.83;0.80;;;6.10;99.90;;;;;;5072902;28;20143;-66
2022/04/03 09:17:03;;;;;;;4.07;0.98;;;6.30;99.90;;;;;;5091081;28;20111;-67
2022/04/03 09:19:35;;;;;;;2.42;0.60;;;6.40;99.90;;;;;;5091358;28;20039;-66
2022/04/03 09:22:01;;;;;;;;;;;6.40;99.90;;;;;;5073490;28;20040;-67
2022/04/03 09:24:28;;;;;;;1.98;0.68;;;6.30;99.90;;;;;;5075422;28;19928;-66
2022/04/03 09:27:02;;;;;;;3.28;0.50;;;6.30;99.90;;;;;;5098759;28;20040;-68
2022/04/03 09:29:27;;;;;;;2.33;0.65;;;6.50;99.90;;;;;;5093013;28;20052;-68
2022/04/03 09:32:02;;;;;;;3.72;0.80;;;6.70;99.90;;;;;;5108463;28;20051;-67
2022/04/03 09:34:29;;;;;;;0.85;0.43;;;7.00;99.90;;;;;;5108355;28;20044;-67
2022/04/03 09:37:05;;;;;;;2.55;0.70;;;7.20;99.90;;;;;;5085189;28;20051;-67
2022/04/03 09:39:31;;;;;;;4.32;0.90;;;7.40;99.90;;;;;;5109586;28;20493;-67
2022/04/03 09:42:06;;;;;;;1.20;0.63;;;7.40;99.90;;;;;;5099291;28;20055;-68
2022/04/03 09:44:33;;;;;;;2.13;0.68;;;7.30;99.90;;;;;;5099049;28;20058;-67
2022/04/03 09:47:15;;;;;;;2.10;0.77;;;7.40;99.90;;;;;;5080674;28;20048;-68
2022/04/03 09:50:02;;;;;;;0.70;0.40;;;7.40;99.90;;;;;;5101306;28;20044;-68
2022/04/03 09:52:51;;;;;;;1.75;0.60;;;7.30;99.90;;;;;;5083648;28;20036;-68
2022/04/03 09:55:22;;;;;;;1.95;0.55;;;7.20;99.90;;;;;;5105072;28;20065;-68
2022/04/03 09:58:01;;;;;;;2.25;0.85;;;7.30;99.90;;;;;;5087878;28;20523;-68
2022/04/03 10:00:31;;;;;;;3.30;0.50;;;7.40;99.90;;;;;;5081984;28;20059;-68
2022/04/03 10:03:03;;;;;;;3.78;0.77;;;7.20;99.90;;;;;;5100820;28;20043;-68
2022/04/03 10:05:30;;;;;;;3.90;0.93;;;7.00;99.90;;;;;;5100499;28;20475;-67
2022/04/03 10:08:00;;;;;;;3.38;0.60;;;6.80;99.90;;;;;;5100599;28;20394;-68
2022/04/03 10:10:27;;;;;;;0.52;0.45;;;6.80;99.90;;;;;;5093326;28;20099;-68
2022/04/03 10:12:55;;;;;;;1.35;0.80;;;7.10;99.90;;;;;;5074536;28;20048;-68
2022/04/03 10:15:21;;;;;;;1.38;0.55;;;7.50;99.90;;;;;;5103905;28;20382;-68
2022/04/03 10:17:47;;;;;;;3.80;0.70;;;7.80;99.90;;;;;;5093270;28;20056;-68
2022/04/03 10:20:14;;;;;;;1.63;0.45;;;7.90;99.90;;;;;;5101363;27;20043;-66
2022/04/03 10:22:43;;;;;;;2.80;0.60;;;7.80;99.90;;;;;;5094289;28;20485;-67
2022/04/03 10:25:14;;;;;;;3.55;0.80;;;7.70;99.90;;;;;;5077673;28;20094;-67
2022/04/03 10:27:40;;;;;;;3.60;0.80;;;7.80;99.90;;;;;;5083915;28;20048;-67
2022/04/03 10:30:06;;;;;;;2.72;0.95;;;7.90;99.90;;;;;;5077836;28;20048;-67
2022/04/03 10:32:34;;;;;;;1.17;0.50;;;7.80;99.90;;;;;;5099632;27;20096;-67
2022/04/03 10:35:10;;;;;;;1.90;0.70;;;7.60;99.90;;;;;;5081107;28;20044;-67
2022/04/03 10:37:38;;;;;;;1.65;0.50;;;7.50;99.90;;;;;;5089415;28;20048;-67
2022/04/03 10:40:15;;;;;;;1.83;0.70;;;7.40;99.90;;;;;;5112627;28;20474;-67
2022/04/03 10:42:52;;;;;;;2.22;0.75;;;7.50;99.90;;;;;;5095798;28;20131;-67
2022/04/03 10:45:23;;;;;;;1.85;0.52;;;7.80;99.90;;;;;;5089620;28;20482;-67
2022/04/03 10:47:50;;;;;;;1.33;0.35;;;7.80;99.90;;;;;;5075001;28;20043;-67
2022/04/03 10:50:16;;;;;;;1.95;0.40;;;7.70;99.90;;;;;;5080668;28;20134;-66
2022/04/03 10:52:41;;;;;;;2.05;0.40;;;7.50;99.90;;;;;;5095599;28;20300;-66
2022/04/03 10:55:25;;;;;;;1.20;0.68;;;7.40;99.90;;;;;;5110442;28;20070;-66
2022/04/03 10:57:54;;;;;;;0.52;0.50;;;7.40;99.90;;;;;;5086178;28;20040;-66
2022/04/03 11:00:19;;;;;;;1.45;0.50;;;7.50;99.90;;;;;;5101755;28;20079;-66
2022/04/03 11:02:55;;;;;;;1.27;0.68;;;7.50;99.90;;;;;;5089006;28;20078;-66
2022/04/03 11:05:27;;;;;;;3.83;1.20;;;7.40;99.90;;;;;;5083716;28;20040;-66
2022/04/03 11:08:02;;;;;;;7.27;1.03;;;7.30;99.90;;;;;;5104982;28;20079;-67
2022/04/03 11:10:59;;;;;;;0.63;0.52;;;7.20;99.90;;;;;;5084801;28;20048;-66
2022/04/03 11:13:34;;;;;;;0.40;0.40;;;7.10;99.90;;;;;;5113183;28;20468;-66
2022/04/03 11:16:01;;;;;;;1.75;0.45;;;7.00;99.90;;;;;;5082449;28;20139;-67
2022/04/03 11:18:28;;;;;;;1.73;0.43;;;6.90;99.90;;;;;;5075001;28;20059;-67
2022/04/03 11:21:08;;;;;;;4.28;0.63;;;6.90;99.90;;;;;;5095576;28;20502;-66
2022/04/03 11:23:42;;;;;;;0.70;0.50;;;6.90;99.90;;;;;;5091744;28;20139;-67
2022/04/03 11:26:08;;;;;;;5.03;0.75;;;6.80;99.90;;;;;;5092064;28;20563;-67
2022/04/03 11:28:37;;;;;;;4.00;0.60;;;6.80;99.90;;;;;;5092135;28;20052;-67
2022/04/03 11:31:04;;;;;;;1.10;0.50;;;6.70;99.90;;;;;;5074861;28;20393;-67
2022/04/03 11:33:31;;;;;;;1.17;0.30;;;6.60;99.90;;;;;;5093243;28;20407;-67
2022/04/03 11:36:12;;;;;;;0.90;0.30;;;6.60;99.90;;;;;;5095132;28;20352;-67
2022/04/03 11:38:48;;;;;;;1.55;0.20;;;6.50;99.90;;;;;;5092368;28;20075;-67
2022/04/03 11:41:16;;;;;;;0.20;0.20;;;6.40;99.90;;;;;;5087147;28;20094;-68
2022/04/03 11:43:45;;;;;;;0.43;0.40;;;6.30;99.90;;;;;;5092509;28;20065;-67
2022/04/03 11:46:11;;;;;;;1.67;0.93;;;6.40;99.90;;;;;;5079653;28;20051;-67
2022/04/03 11:48:42;;;;;;;1.42;0.40;;;6.60;99.90;;;;;;5094900;28;20055;-67
2022/04/03 11:51:19;;;;;;;4.70;0.75;;;6.70;99.90;;;;;;5093973;28;20052;-67
2022/04/03 11:53:49;;;;;;;3.53;0.80;;;6.90;99.90;;;;;;5093310;28;20051;-67
2022/04/03 11:56:16;;;;;;;2.75;0.70;;;7.20;99.90;;;;;;5092197;28;20460;-68
2022/04/03 11:58:44;;;;;;;3.58;0.60;;;7.30;99.90;;;;;;5101192;28;20100;-67
2022/04/03 12:01:10;;;;;;;1.08;0.40;;;7.20;99.90;;;;;;5101829;28;20040;-66
2022/04/03 12:03:37;;;;;;;1.85;0.77;;;7.20;99.90;;;;;;5092558;28;20083;-67
2022/04/03 12:06:18;;;;;;;2.08;0.80;;;7.00;99.90;;;;;;5086623;28;20043;-66
2022/04/03 12:08:46;;;;;;;3.78;0.85;;;7.10;99.90;;;;;;5107220;28;20507;-67
2022/04/03 12:11:24;;;;;;;4.07;0.82;;;7.30;99.90;;;;;;5073603;28;20543;-66
2022/04/03 12:13:57;;;;;;;3.17;0.90;;;7.80;99.90;;;;;;5109550;28;20510;-67
2022/04/03 12:16:30;;;;;;;1.85;1.00;;;8.10;99.90;;;;;;5082952;28;20133;-66
2022/04/03 12:18:57;;;;;;;2.78;0.60;;;8.20;99.90;;;;;;5073822;28;20054;-67
2022/04/03 12:21:43;;;;;;;2.70;0.60;;;8.00;99.90;;;;;;5094856;28;20055;-66
2022/04/03 12:24:13;;;;;;;1.33;0.77;;;7.90;99.90;;;;;;5112491;28;20054;-67
2022/04/03 12:26:59;;;;;;;2.08;0.73;;;7.60;99.90;;;;;;5111992;28;20042;-67
2022/04/03 12:29:31;;;;;;;3.75;0.80;;;7.50;99.90;;;;;;5088949;28;20051;-66
2022/04/03 12:32:04;;;;;;;1.63;0.50;;;7.50;99.90;;;;;;5098596;28;20123;-66
2022/04/03 12:34:32;;;;;;;3.50;0.45;;;7.60;99.90;;;;;;5091918;28;20059;-67
2022/04/03 12:37:00;;;;;;;2.50;0.73;;;7.60;99.90;;;;;;5074352;28;20048;-66
2022/04/03 12:39:33;;;;;;;1.05;0.35;;;7.50;99.90;;;;;;5073368;28;20520;-67
2022/04/03 12:42:30;;;;;;;1.48;0.35;;;7.40;99.90;;;;;;5094267;28;20054;-67
2022/04/03 12:45:13;;;;;;;3.28;0.45;;;7.40;99.90;;;;;;5112367;28;20513;-67
2022/04/03 12:47:55;;;;;;;2.33;0.60;;;7.30;99.90;;;;;;5092971;28;20047;-66
2022/04/03 12:50:25;;;;;;;3.17;0.35;;;7.20;99.90;;;;;;5094058;28;20055;-66
2022/04/03 12:53:00;;;;;;;4.28;0.57;;;7.10;99.90;;;;;;5111895;28;20032;-67
2022/04/03 12:55:32;;;;;;;6.18;0.63;;;7.30;99.90;;;;;;5093208;28;20051;-67
2022/04/03 13:01:13;;;;;;;1.98;0.82;;;7.40;99.90;;;;;;5075548;28;20052;-67
2022/04/03 13:03:39;;;;;;;0.65;0.55;;;7.80;99.90;;;;;;5094359;28;20044;-66